Time;durP1;ratioP1;P1;durP2;ratioP2;P2;SDS_P1;SDS_P2;PMS_P1;PMS_P2;Temp;Humidity;BMP_temperature;BMP_pressure;BME280_temperature;BME280_humidity;BME280_pressure;Samples;Min_cycle;Max_cycle;Signal;HPM_P1;HPM_P2
2022/07/14 00:00:52;;;;;;;12.90;4.78;;;21.10;99.90;;;;;;5053968;28;20108;-61
2022/07/14 00:03:18;;;;;;;11.52;5.15;;;21.00;99.90;;;;;;5054351;28;20031;-61
2022/07/14 00:05:44;;;;;;;12.43;5.15;;;21.00;99.90;;;;;;5054293;28;20029;-62
2022/07/14 00:08:09;;;;;;;12.10;4.40;;;21.00;99.90;;;;;;5054138;28;20068;-61
2022/07/14 00:10:35;;;;;;;11.65;4.20;;;21.00;99.90;;;;;;5054481;28;20021;-61
2022/07/14 00:13:01;;;;;;;14.32;5.10;;;20.90;99.90;;;;;;5053984;28;20401;-61
2022/07/14 00:15:28;;;;;;;20.10;5.03;;;20.90;99.90;;;;;;5052634;28;20498;-61
2022/07/14 00:17:55;;;;;;;12.80;5.05;;;20.90;99.90;;;;;;5054280;28;20080;-61
2022/07/14 00:20:21;;;;;;;12.02;4.80;;;20.90;99.90;;;;;;5054059;28;20111;-61
2022/07/14 00:22:47;;;;;;;14.60;4.50;;;20.90;99.90;;;;;;5052438;28;20539;-61
2022/07/14 00:25:12;;;;;;;11.70;5.10;;;20.90;99.90;;;;;;5053865;28;20021;-61
2022/07/14 00:27:38;;;;;;;12.20;4.55;;;20.90;99.90;;;;;;5054059;28;20366;-62
2022/07/14 00:30:05;;;;;;;14.82;4.45;;;21.00;99.90;;;;;;5053723;28;20036;-61
2022/07/14 00:32:32;;;;;;;8.85;4.25;;;20.90;99.90;;;;;;5054022;28;20099;-60
2022/07/14 00:34:58;;;;;;;10.32;4.20;;;20.70;99.90;;;;;;5052941;28;20032;-60
2022/07/14 00:37:23;;;;;;;12.15;4.63;;;20.50;99.90;;;;;;5053452;28;20036;-61
2022/07/14 00:39:55;;;;;;;10.55;4.32;;;20.40;99.90;;;;;;5054528;28;20025;-60
2022/07/14 00:42:35;;;;;;;13.23;4.60;;;20.20;99.90;;;;;;5054118;28;20382;-59
2022/07/14 00:45:03;;;;;;;10.48;4.10;;;20.00;99.90;;;;;;5053635;28;20040;-59
2022/07/14 00:47:28;;;;;;;9.50;4.50;;;19.80;99.90;;;;;;5052356;28;20044;-59
2022/07/14 00:49:55;;;;;;;12.07;4.70;;;19.70;99.90;;;;;;5053768;28;20491;-59
2022/07/14 00:52:23;;;;;;;10.23;4.63;;;19.70;99.90;;;;;;5051709;28;20102;-59
2022/07/14 00:54:49;;;;;;;12.68;4.22;;;19.60;99.90;;;;;;5052906;28;20115;-58
2022/07/14 00:57:15;;;;;;;10.15;4.78;;;19.60;99.90;;;;;;5053329;28;20112;-58
2022/07/14 00:59:41;;;;;;;13.77;4.50;;;19.60;99.90;;;;;;5053303;28;20060;-58
2022/07/14 01:02:06;;;;;;;15.18;4.63;;;19.60;99.90;;;;;;5053695;28;20115;-57
2022/07/14 01:04:32;;;;;;;8.85;4.78;;;19.50;99.90;;;;;;5052883;28;20120;-58
2022/07/14 01:06:58;;;;;;;10.07;4.78;;;19.50;99.90;;;;;;5053287;28;20025;-59
2022/07/14 01:09:23;;;;;;;15.05;5.07;;;19.60;99.90;;;;;;5053160;28;20271;-59
2022/07/14 01:11:49;;;;;;;17.83;5.43;;;19.60;99.90;;;;;;5052741;28;20036;-58
2022/07/14 01:14:14;;;;;;;15.32;5.25;;;19.50;99.90;;;;;;5052990;28;20025;-59
2022/07/14 01:16:40;;;;;;;11.65;5.43;;;19.50;99.90;;;;;;5052662;28;20436;-60
2022/07/14 01:19:06;;;;;;;11.35;5.35;;;19.50;99.90;;;;;;5052653;28;20067;-59
2022/07/14 01:21:31;;;;;;;10.55;4.97;;;19.50;99.90;;;;;;5052616;28;20386;-59
2022/07/14 01:23:57;;;;;;;16.25;5.13;;;19.40;99.90;;;;;;5034845;28;20036;-59
2022/07/14 01:26:24;;;;;;;13.10;5.25;;;19.50;99.90;;;;;;5052752;28;20151;-59
2022/07/14 01:28:49;;;;;;;11.98;4.55;;;19.60;99.90;;;;;;5052545;28;20028;-59
2022/07/14 01:31:15;;;;;;;12.60;4.40;;;19.60;99.90;;;;;;5052351;28;20033;-59
2022/07/14 01:33:41;;;;;;;9.55;3.88;;;19.50;99.90;;;;;;5052526;28;20029;-59
2022/07/14 01:36:07;;;;;;;11.30;4.90;;;19.50;99.90;;;;;;5052196;28;20029;-59
2022/07/14 01:38:32;;;;;;;17.05;5.35;;;19.50;99.90;;;;;;5052430;28;20035;-60
2022/07/14 01:40:58;;;;;;;16.63;5.60;;;19.60;99.90;;;;;;5052225;28;20017;-62
2022/07/14 01:43:23;;;;;;;11.73;4.72;;;19.60;99.90;;;;;;5052050;28;20052;-63
2022/07/14 01:45:49;;;;;;;13.43;5.47;;;19.60;99.90;;;;;;5051287;28;20375;-63
2022/07/14 01:48:15;;;;;;;13.20;5.05;;;19.70;99.90;;;;;;5052307;28;20191;-62
2022/07/14 01:50:41;;;;;;;16.42;6.13;;;19.70;99.90;;;;;;5051953;28;20067;-62
2022/07/14 01:53:06;;;;;;;17.30;5.45;;;19.90;99.90;;;;;;5052078;28;20456;-63
2022/07/14 01:55:32;;;;;;;14.75;6.22;;;20.00;99.90;;;;;;5051943;28;20055;-62
2022/07/14 01:57:58;;;;;;;15.18;6.28;;;19.80;99.90;;;;;;5052262;28;20091;-65
2022/07/14 02:00:24;;;;;;;17.98;6.20;;;19.60;99.90;;;;;;5052106;28;20092;-61
2022/07/14 02:02:50;;;;;;;17.45;6.85;;;19.50;99.90;;;;;;5051931;28;20124;-60
2022/07/14 02:05:16;;;;;;;16.80;5.90;;;19.40;99.90;;;;;;5051850;28;20529;-62
2022/07/14 02:07:41;;;;;;;17.98;7.05;;;19.30;99.90;;;;;;5050716;28;20071;-61
2022/07/14 02:12:52;;;;;;;15.50;6.80;;;19.20;99.90;;;;;;5052285;28;20047;-61
2022/07/14 02:15:17;;;;;;;13.43;6.28;;;19.30;99.90;;;;;;5052358;28;20521;-60
2022/07/14 02:17:43;;;;;;;18.25;6.70;;;19.20;99.90;;;;;;5051336;28;20040;-61
2022/07/14 02:20:09;;;;;;;10.55;5.45;;;19.10;99.90;;;;;;5052974;28;20501;-63
2022/07/14 02:22:35;;;;;;;14.82;5.70;;;19.00;99.90;;;;;;5053177;28;20096;-63
2022/07/14 02:25:01;;;;;;;15.35;6.25;;;19.00;99.90;;;;;;5052691;28;20446;-60
2022/07/14 02:27:27;;;;;;;13.82;6.53;;;19.10;99.90;;;;;;5052498;28;20037;-59
2022/07/14 02:29:53;;;;;;;15.38;6.55;;;19.10;99.90;;;;;;5052289;28;20060;-60
2022/07/14 02:32:18;;;;;;;16.33;6.15;;;19.20;99.90;;;;;;5051536;28;20017;-59
2022/07/14 02:34:44;;;;;;;12.45;5.93;;;19.20;99.90;;;;;;5051630;28;20025;-58
2022/07/14 02:37:10;;;;;;;13.18;5.80;;;19.00;99.90;;;;;;5051351;28;20466;-60
2022/07/14 02:39:35;;;;;;;12.95;5.55;;;18.90;99.90;;;;;;5051413;28;20039;-59
2022/07/14 02:42:01;;;;;;;9.77;4.50;;;18.80;99.90;;;;;;5050987;28;20032;-60
2022/07/14 02:44:27;;;;;;;12.75;5.28;;;18.80;99.90;;;;;;5051280;28;20025;-59
2022/07/14 02:46:52;;;;;;;14.63;5.80;;;18.90;99.90;;;;;;5050639;28;20480;-59
2022/07/14 02:49:18;;;;;;;16.23;5.43;;;19.00;99.90;;;;;;5051226;28;20025;-60
2022/07/14 02:51:43;;;;;;;13.27;5.40;;;19.00;99.90;;;;;;5051276;28;20074;-61
2022/07/14 02:54:09;;;;;;;12.13;5.80;;;19.00;99.90;;;;;;5051477;28;20053;-60
2022/07/14 02:56:35;;;;;;;14.73;6.22;;;19.00;99.90;;;;;;5050777;28;20029;-60
2022/07/14 02:59:00;;;;;;;14.35;5.80;;;19.10;99.90;;;;;;5051425;28;20028;-59
2022/07/14 03:01:26;;;;;;;18.45;5.97;;;19.10;99.90;;;;;;5051473;28;20059;-59
2022/07/14 03:03:51;;;;;;;15.45;6.78;;;19.10;99.90;;;;;;5051363;28;20040;-61
2022/07/14 03:06:18;;;;;;;12.75;6.18;;;19.20;99.90;;;;;;5051115;28;20017;-60
2022/07/14 03:08:45;;;;;;;15.32;6.18;;;19.20;99.90;;;;;;5051264;28;20033;-60
2022/07/14 03:11:11;;;;;;;15.80;6.35;;;19.30;99.90;;;;;;5051174;28;20033;-60
2022/07/14 03:13:37;;;;;;;15.00;6.63;;;19.20;99.90;;;;;;5051091;28;20513;-60
2022/07/14 03:16:06;;;;;;;12.60;6.25;;;19.30;99.90;;;;;;5049822;28;20025;-60
2022/07/14 03:18:32;;;;;;;12.88;6.57;;;19.60;99.90;;;;;;5051181;28;20029;-63
2022/07/14 03:20:57;;;;;;;15.85;7.13;;;19.70;99.90;;;;;;5050930;28;20017;-60
2022/07/14 03:23:23;;;;;;;21.50;6.22;;;19.60;99.90;;;;;;5050842;28;20107;-62
2022/07/14 03:25:49;;;;;;;21.70;9.52;;;19.40;99.90;;;;;;5049582;28;20067;-60
2022/07/14 03:28:15;;;;;;;13.57;6.18;;;19.40;99.90;;;;;;5050862;28;20032;-61
2022/07/14 03:30:41;;;;;;;15.48;5.65;;;19.20;99.90;;;;;;5050845;28;20036;-60
2022/07/14 03:33:07;;;;;;;15.80;5.15;;;18.90;99.90;;;;;;5050835;28;20037;-62
2022/07/14 03:35:36;;;;;;;10.45;5.90;;;18.80;99.90;;;;;;5051114;28;20021;-61
2022/07/14 03:38:02;;;;;;;12.25;5.22;;;18.80;99.90;;;;;;5051118;28;20040;-61
2022/07/14 03:40:28;;;;;;;13.48;5.75;;;18.90;99.90;;;;;;5049648;28;20037;-61
2022/07/14 03:42:53;;;;;;;13.95;5.72;;;18.70;99.90;;;;;;5050833;28;20025;-61
2022/07/14 03:45:19;;;;;;;13.38;5.35;;;18.60;99.90;;;;;;5050678;28;20055;-61
2022/07/14 03:47:44;;;;;;;12.95;5.15;;;18.50;99.90;;;;;;5050768;28;20029;-61
2022/07/14 03:50:10;;;;;;;12.77;5.65;;;18.40;99.90;;;;;;5049576;28;20079;-61
2022/07/14 03:52:36;;;;;;;14.60;5.38;;;18.40;99.90;;;;;;5050577;28;20044;-60
2022/07/14 03:55:02;;;;;;;10.95;4.90;;;18.40;99.90;;;;;;5049224;28;20025;-60
2022/07/14 03:57:28;;;;;;;11.45;5.20;;;18.40;99.90;;;;;;5050227;28;20474;-61
2022/07/14 03:59:54;;;;;;;15.93;5.35;;;18.40;99.90;;;;;;5050540;28;20083;-60
2022/07/14 04:02:19;;;;;;;12.50;5.47;;;18.40;99.90;;;;;;5050327;28;20021;-60
2022/07/14 04:04:45;;;;;;;11.95;5.28;;;18.50;99.90;;;;;;5050514;28;20108;-61
2022/07/14 04:07:11;;;;;;;10.10;4.97;;;18.60;99.90;;;;;;5050567;28;20031;-61
2022/07/14 04:09:36;;;;;;;12.48;5.32;;;18.60;99.90;;;;;;5053048;28;20033;-61
2022/07/14 04:12:02;;;;;;;13.40;5.20;;;18.70;99.90;;;;;;5054325;28;20034;-61
2022/07/14 04:14:28;;;;;;;13.75;6.05;;;18.70;99.90;;;;;;5053969;28;20397;-61
2022/07/14 04:16:54;;;;;;;14.48;6.18;;;18.90;99.90;;;;;;5054064;28;20032;-61
2022/07/14 04:19:19;;;;;;;17.75;6.43;;;19.10;99.90;;;;;;5054147;28;20429;-59
2022/07/14 04:21:45;;;;;;;11.18;5.70;;;19.40;99.90;;;;;;5054109;28;20025;-61
2022/07/14 04:24:11;;;;;;;14.93;5.35;;;19.10;99.90;;;;;;5054071;28;20032;-60
2022/07/14 04:26:37;;;;;;;13.10;5.22;;;19.00;99.90;;;;;;5053923;28;20087;-60
2022/07/14 04:29:04;;;;;;;11.27;5.20;;;19.00;99.90;;;;;;5054282;28;20052;-60
2022/07/14 04:31:30;;;;;;;13.45;5.07;;;18.90;99.90;;;;;;5053829;28;20021;-60
2022/07/14 04:33:56;;;;;;;12.93;5.20;;;18.80;99.90;;;;;;5053857;28;20033;-60
2022/07/14 04:36:23;;;;;;;16.02;5.22;;;18.80;99.90;;;;;;5053673;28;20526;-61
2022/07/14 04:38:48;;;;;;;13.60;5.05;;;18.90;99.90;;;;;;5053880;28;20083;-61
2022/07/14 04:41:14;;;;;;;17.08;5.35;;;18.90;99.90;;;;;;5053861;28;20052;-61
2022/07/14 04:43:40;;;;;;;12.95;4.82;;;18.90;99.90;;;;;;5054118;28;20100;-62
2022/07/14 04:46:05;;;;;;;14.55;5.35;;;19.00;99.90;;;;;;5053519;28;20020;-61
2022/07/14 04:52:01;;;;;;;15.05;4.90;;;19.00;99.90;;;;;;5053558;28;20383;-61
2022/07/14 04:54:01;;;;;;;15.90;5.40;;;19.10;99.90;;;;;;5053031;28;20091;-61
2022/07/14 04:56:26;;;;;;;13.90;5.57;;;19.10;99.90;;;;;;5053301;28;20397;-61
2022/07/14 04:58:52;;;;;;;18.08;5.18;;;19.00;99.90;;;;;;5053387;28;20290;-61
2022/07/14 05:01:18;;;;;;;19.02;5.15;;;18.80;99.90;;;;;;5052027;28;20637;-61
2022/07/14 05:03:43;;;;;;;11.13;4.95;;;18.70;99.90;;;;;;5053415;28;20232;-63
2022/07/14 05:06:10;;;;;;;17.20;6.03;;;18.60;99.90;;;;;;5053141;28;20039;-60
2022/07/14 05:08:36;;;;;;;9.75;4.70;;;18.50;99.90;;;;;;5053561;28;20057;-60
2022/07/14 05:11:04;;;;;;;13.10;5.50;;;18.50;99.90;;;;;;5053380;28;20060;-62
2022/07/14 05:13:29;;;;;;;22.52;5.85;;;18.50;99.90;;;;;;5053258;28;20111;-61
2022/07/14 05:15:55;;;;;;;18.10;6.15;;;18.40;99.90;;;;;;5053062;28;20129;-60
2022/07/14 05:18:20;;;;;;;14.32;5.70;;;18.50;99.90;;;;;;5053220;28;20041;-61
2022/07/14 05:20:46;;;;;;;15.18;5.40;;;18.70;99.90;;;;;;5052746;28;20021;-60
2022/07/14 05:23:12;;;;;;;14.20;5.28;;;18.70;99.90;;;;;;5052730;28;20477;-61
2022/07/14 05:25:39;;;;;;;15.57;5.53;;;18.60;99.90;;;;;;5052804;28;20056;-62
2022/07/14 05:28:05;;;;;;;22.02;5.40;;;18.60;99.90;;;;;;5052982;28;20036;-60
2022/07/14 05:30:31;;;;;;;25.05;6.18;;;18.70;99.90;;;;;;5053014;28;20478;-61
2022/07/14 05:32:57;;;;;;;14.00;5.20;;;18.70;99.90;;;;;;5052629;28;20108;-61
2022/07/14 05:35:23;;;;;;;11.27;5.13;;;18.70;99.90;;;;;;5052811;28;20060;-59
2022/07/14 05:37:49;;;;;;;21.15;5.82;;;18.60;99.90;;;;;;5052600;28;20473;-61
2022/07/14 05:40:14;;;;;;;20.48;5.82;;;18.60;99.90;;;;;;5052732;28;20103;-62
2022/07/14 05:42:40;;;;;;;15.30;5.07;;;18.70;99.90;;;;;;5052469;28;20497;-60
2022/07/14 05:45:06;;;;;;;18.17;5.97;;;18.90;99.90;;;;;;5052566;28;20432;-61
2022/07/14 05:47:32;;;;;;;14.60;5.22;;;18.90;99.90;;;;;;5052386;28;20033;-62
2022/07/14 05:49:57;;;;;;;19.55;5.22;;;19.00;99.90;;;;;;5052786;28;20109;-61
2022/07/14 05:52:23;;;;;;;13.05;4.38;;;19.00;99.90;;;;;;5051755;28;20056;-60
2022/07/14 05:54:49;;;;;;;15.32;5.25;;;19.20;99.90;;;;;;5052569;28;20497;-60
2022/07/14 05:57:15;;;;;;;22.40;4.97;;;19.50;99.90;;;;;;5051855;28;20013;-61
2022/07/14 05:59:40;;;;;;;11.65;4.60;;;19.80;99.90;;;;;;5050839;28;20083;-60
2022/07/14 06:02:06;;;;;;;15.93;4.60;;;19.80;99.90;;;;;;5051664;28;20033;-61
2022/07/14 06:04:32;;;;;;;10.23;4.47;;;19.70;99.90;;;;;;5067158;28;20386;-60
2022/07/14 06:06:57;;;;;;;14.45;4.50;;;19.70;99.90;;;;;;5051527;28;20036;-60
2022/07/14 06:09:23;;;;;;;14.57;4.38;;;19.90;99.90;;;;;;5051677;28;20490;-60
2022/07/14 06:11:49;;;;;;;13.02;4.32;;;20.10;99.90;;;;;;5050338;28;20119;-61
2022/07/14 06:14:15;;;;;;;20.08;5.10;;;20.20;99.90;;;;;;5051434;28;20041;-61
2022/07/14 06:16:41;;;;;;;14.27;4.55;;;20.40;99.90;;;;;;5051492;28;20057;-61
2022/07/14 06:19:07;;;;;;;12.35;5.00;;;20.60;99.90;;;;;;5051657;28;20039;-61
2022/07/14 06:21:32;;;;;;;17.52;4.72;;;20.60;99.90;;;;;;5052330;28;20021;-61
2022/07/14 06:23:58;;;;;;;16.92;5.18;;;20.60;99.90;;;;;;5052185;28;20394;-61
2022/07/14 06:26:24;;;;;;;16.50;5.72;;;20.60;99.90;;;;;;5051759;28;20028;-60
2022/07/14 06:28:49;;;;;;;23.15;5.53;;;20.40;99.90;;;;;;5051553;28;20040;-61
2022/07/14 06:31:15;;;;;;;19.10;5.88;;;20.20;99.90;;;;;;5049575;28;20029;-61
2022/07/14 06:33:41;;;;;;;15.82;6.38;;;20.30;99.90;;;;;;5051265;28;20039;-61
2022/07/14 06:36:08;;;;;;;18.73;5.85;;;20.20;99.90;;;;;;5051243;28;20397;-61
2022/07/14 06:38:34;;;;;;;14.25;4.85;;;20.10;99.90;;;;;;5050134;28;20112;-61
2022/07/14 06:41:00;;;;;;;14.63;5.18;;;20.10;99.90;;;;;;5051439;28;20389;-61
2022/07/14 06:43:26;;;;;;;15.60;5.10;;;20.40;99.90;;;;;;5049615;28;20037;-61
2022/07/14 06:45:52;;;;;;;14.90;5.22;;;20.70;99.90;;;;;;5051143;28;20100;-62
2022/07/14 06:48:18;;;;;;;19.60;4.78;;;20.70;99.90;;;;;;5051152;28;20599;-62
2022/07/14 06:50:44;;;;;;;12.13;4.70;;;21.00;99.90;;;;;;5051180;28;20052;-59
2022/07/14 06:53:10;;;;;;;14.82;4.45;;;21.20;99.90;;;;;;5051238;28;20049;-60
2022/07/14 06:55:36;;;;;;;11.57;4.22;;;21.40;99.90;;;;;;5051001;28;20482;-60
2022/07/14 06:58:02;;;;;;;13.45;4.35;;;21.20;99.90;;;;;;5051119;28;20040;-60
2022/07/14 07:00:27;;;;;;;17.83;4.57;;;21.60;99.90;;;;;;5050743;28;20031;-60
2022/07/14 07:02:53;;;;;;;18.05;4.75;;;22.50;99.90;;;;;;5051109;28;20043;-64
2022/07/14 07:08:03;;;;;;;15.52;3.53;;;24.60;99.90;;;;;;5051587;28;20040;-63
2022/07/14 07:10:29;;;;;;;14.60;3.22;;;25.50;99.90;;;;;;5050802;28;20397;-63
2022/07/14 07:12:55;;;;;;;12.40;3.10;;;25.80;99.90;;;;;;5050746;28;20083;-63
2022/07/14 07:15:21;;;;;;;11.27;3.53;;;25.90;99.90;;;;;;5050714;28;20036;-63
2022/07/14 07:17:47;;;;;;;10.77;2.67;;;25.90;99.90;;;;;;5050886;28;20532;-62
2022/07/14 07:20:13;;;;;;;11.45;3.50;;;26.10;99.90;;;;;;5050873;28;20032;-62
2022/07/14 07:22:38;;;;;;;11.55;3.28;;;26.30;99.90;;;;;;5050779;28;20036;-62
2022/07/14 07:25:06;;;;;;;9.38;3.05;;;26.40;99.90;;;;;;5050679;28;20029;-62
2022/07/14 07:27:32;;;;;;;10.65;3.00;;;26.80;99.90;;;;;;5051426;28;20392;-63
2022/07/14 07:30:00;;;;;;;8.73;3.20;;;26.90;99.90;;;;;;5050895;28;20028;-64
2022/07/14 07:32:26;;;;;;;8.27;2.83;;;27.90;99.90;;;;;;5050438;28;20021;-64
2022/07/14 07:34:52;;;;;;;11.35;2.83;;;28.70;99.50;;;;;;5051057;28;20488;-64
2022/07/14 07:37:17;;;;;;;11.15;3.03;;;28.90;99.40;;;;;;5050402;28;20029;-64
2022/07/14 07:39:43;;;;;;;14.30;3.55;;;28.80;98.80;;;;;;5050326;28;20033;-64
2022/07/14 07:42:09;;;;;;;11.38;3.20;;;28.60;99.30;;;;;;5049075;28;20544;-63
2022/07/14 07:44:36;;;;;;;13.75;3.78;;;28.40;98.20;;;;;;5052785;28;20078;-61
2022/07/14 07:47:02;;;;;;;9.10;3.15;;;27.30;99.70;;;;;;5054583;28;20025;-63
2022/07/14 07:49:28;;;;;;;7.90;2.80;;;27.00;99.90;;;;;;5054636;28;20048;-63
2022/07/14 07:52:01;;;;;;;14.25;3.30;;;27.20;99.90;;;;;;5052816;28;20029;-63
2022/07/14 07:54:28;;;;;;;13.80;3.63;;;28.00;99.70;;;;;;5054258;28;20052;-62
2022/07/14 07:56:55;;;;;;;11.15;3.47;;;28.30;98.60;;;;;;5053972;28;20021;-63
2022/07/14 07:59:21;;;;;;;10.65;3.20;;;28.00;98.40;;;;;;5054077;28;20067;-62
2022/07/14 08:01:47;;;;;;;10.23;3.10;;;28.20;98.80;;;;;;5053897;28;20107;-62
2022/07/14 08:04:14;;;;;;;10.18;3.30;;;27.40;99.60;;;;;;5053034;28;20108;-63
2022/07/14 08:06:40;;;;;;;11.40;4.05;;;27.20;99.90;;;;;;5053967;28;20052;-62
2022/07/14 08:09:10;;;;;;;10.30;3.33;;;27.30;99.90;;;;;;5054446;28;20489;-62
2022/07/14 08:11:36;;;;;;;12.63;3.55;;;27.40;99.50;;;;;;5053894;28;20525;-62
2022/07/14 08:14:02;;;;;;;9.55;3.20;;;27.10;99.90;;;;;;5054090;28;20167;-62
2022/07/14 08:16:27;;;;;;;11.52;3.05;;;26.50;99.90;;;;;;5053602;28;20016;-62
2022/07/14 08:18:53;;;;;;;12.23;3.47;;;26.20;99.80;;;;;;5054016;28;20021;-62
2022/07/14 08:21:19;;;;;;;9.60;3.10;;;25.90;99.90;;;;;;5053681;28;20025;-62
2022/07/14 08:23:44;;;;;;;11.65;3.65;;;25.50;99.90;;;;;;5053840;28;20040;-62
2022/07/14 08:26:10;;;;;;;8.40;2.85;;;25.90;99.90;;;;;;5054048;28;20060;-62
2022/07/14 08:28:36;;;;;;;10.25;3.30;;;26.70;99.90;;;;;;5054108;28;20053;-62
2022/07/14 08:31:02;;;;;;;9.05;3.03;;;26.50;99.90;;;;;;5052475;28;20040;-62
2022/07/14 08:33:28;;;;;;;10.82;2.78;;;25.70;99.90;;;;;;5051958;28;20028;-62
2022/07/14 08:35:54;;;;;;;12.68;3.20;;;25.50;99.90;;;;;;5052667;28;20112;-62
2022/07/14 08:38:20;;;;;;;10.10;2.83;;;25.60;99.90;;;;;;5053477;28;20035;-62
2022/07/14 08:40:47;;;;;;;10.10;2.80;;;25.30;99.90;;;;;;5053438;28;20024;-62
2022/07/14 08:43:13;;;;;;;12.50;2.88;;;25.20;99.90;;;;;;5053344;28;20025;-62
2022/07/14 08:45:42;;;;;;;9.60;3.05;;;25.40;99.90;;;;;;5053053;28;20492;-61
2022/07/14 08:48:09;;;;;;;11.10;3.00;;;25.50;99.90;;;;;;5053218;28;20020;-62
2022/07/14 08:50:35;;;;;;;11.52;2.83;;;24.90;99.90;;;;;;5053663;28;20040;-61
2022/07/14 08:53:04;;;;;;;7.63;2.83;;;24.80;99.90;;;;;;5053187;28;20041;-61
2022/07/14 08:55:31;;;;;;;20.08;3.40;;;24.90;99.90;;;;;;5051308;28;20033;-63
2022/07/14 08:57:57;;;;;;;8.30;2.97;;;24.90;99.90;;;;;;5053485;28;20040;-61
2022/07/14 09:00:23;;;;;;;9.43;2.63;;;25.00;99.90;;;;;;5052940;28;20025;-61
2022/07/14 09:02:51;;;;;;;10.75;3.05;;;25.10;99.90;;;;;;5052917;28;20025;-61
2022/07/14 09:05:17;;;;;;;16.02;3.70;;;25.30;99.90;;;;;;5053499;28;20013;-61
2022/07/14 09:07:43;;;;;;;12.75;3.25;;;25.50;99.90;;;;;;5052955;28;20032;-61
2022/07/14 09:10:11;;;;;;;9.90;3.30;;;25.50;99.90;;;;;;5052776;28;20017;-61
2022/07/14 09:12:37;;;;;;;10.70;3.15;;;25.80;99.90;;;;;;5051551;28;20033;-62
2022/07/14 09:18:03;;;;;;;10.38;3.00;;;27.50;99.60;;;;;;5052849;28;20036;-62
2022/07/14 09:20:31;;;;;;;9.57;2.97;;;28.30;97.70;;;;;;5052146;28;20393;-62
2022/07/14 09:22:59;;;;;;;9.13;2.95;;;28.80;95.00;;;;;;5052650;28;20025;-62
2022/07/14 09:25:26;;;;;;;8.30;2.75;;;29.00;93.60;;;;;;5051709;28;20119;-62
2022/07/14 09:27:53;;;;;;;8.68;2.33;;;29.60;91.60;;;;;;5051690;28;20090;-62
2022/07/14 09:30:20;;;;;;;9.35;2.53;;;29.70;91.10;;;;;;5052301;28;20473;-62
2022/07/14 09:32:51;;;;;;;10.45;2.38;;;29.80;91.20;;;;;;5052666;28;20442;-63
2022/07/14 09:35:22;;;;;;;6.97;2.23;;;30.00;91.10;;;;;;5052283;28;20021;-62
2022/07/14 09:37:50;;;;;;;12.23;2.92;;;30.90;89.40;;;;;;5053112;28;20017;-62
2022/07/14 09:40:27;;;;;;;8.00;2.30;;;30.10;88.10;;;;;;5052624;28;20033;-62
2022/07/14 09:43:01;;;;;;;9.43;2.40;;;30.30;87.20;;;;;;5052346;28;20436;-62
2022/07/14 09:45:38;;;;;;;11.35;2.47;;;29.90;87.10;;;;;;5052110;28;20111;-63
2022/07/14 09:48:09;;;;;;;7.85;2.20;;;29.80;87.50;;;;;;5052374;28;20029;-63
2022/07/14 09:50:43;;;;;;;8.30;2.22;;;29.80;88.00;;;;;;5052236;28;20103;-63
2022/07/14 09:53:11;;;;;;;8.02;2.30;;;30.20;84.80;;;;;;5051952;28;20159;-63
2022/07/14 09:55:39;;;;;;;9.07;2.58;;;30.90;84.20;;;;;;5051764;28;20029;-64
2022/07/14 09:58:06;;;;;;;7.57;2.60;;;31.80;81.00;;;;;;5051963;28;20082;-64
2022/07/14 10:00:34;;;;;;;9.18;2.25;;;31.40;78.90;;;;;;5052436;28;20100;-63
2022/07/14 10:03:03;;;;;;;9.80;2.60;;;31.30;77.60;;;;;;5051823;28;20032;-63
2022/07/14 10:05:34;;;;;;;6.00;1.70;;;31.60;74.90;;;;;;5051497;28;20028;-63
2022/07/14 10:08:03;;;;;;;8.35;1.80;;;31.10;73.50;;;;;;5051428;28;20527;-63
2022/07/14 10:10:33;;;;;;;6.10;1.58;;;30.70;74.40;;;;;;5051466;28;20017;-63
2022/07/14 10:13:00;;;;;;;7.95;2.00;;;31.40;74.10;;;;;;5051521;28;20029;-63
2022/07/14 10:15:26;;;;;;;6.20;2.15;;;31.40;73.90;;;;;;5050422;28;20059;-63
2022/07/14 10:17:56;;;;;;;5.72;2.05;;;31.10;73.90;;;;;;5051701;28;20025;-63
2022/07/14 10:20:23;;;;;;;8.43;2.10;;;30.70;76.00;;;;;;5051526;28;20025;-62
2022/07/14 10:22:50;;;;;;;8.77;2.15;;;30.50;75.90;;;;;;5050256;28;20036;-63
2022/07/14 10:25:16;;;;;;;8.25;1.92;;;29.80;76.30;;;;;;5050072;28;20106;-63
2022/07/14 10:27:43;;;;;;;7.38;2.03;;;29.70;75.70;;;;;;5051408;28;20025;-63
2022/07/14 10:30:10;;;;;;;8.48;2.10;;;29.80;74.00;;;;;;5051107;28;20033;-63
2022/07/14 10:32:46;;;;;;;6.60;1.75;;;30.20;70.60;;;;;;5051134;28;20121;-63
2022/07/14 10:35:20;;;;;;;4.10;1.52;;;30.20;69.80;;;;;;5051131;28;20021;-63
2022/07/14 10:38:22;;;;;;;4.68;2.10;;;30.60;70.00;;;;;;5050037;28;20029;-63
2022/07/14 10:41:06;;;;;;;7.70;2.00;;;32.10;70.90;;;;;;5051046;28;20029;-63
2022/07/14 10:43:53;;;;;;;6.30;1.73;;;32.10;66.90;;;;;;5051015;28;20044;-63
2022/07/14 10:46:35;;;;;;;7.55;2.00;;;32.10;67.20;;;;;;5051552;28;20040;-63
2022/07/14 10:49:01;;;;;;;;;;;31.10;70.20;;;;;;5051953;28;20057;-63
2022/07/14 10:51:28;;;;;;;8.02;1.85;;;30.90;70.80;;;;;;5051087;28;19962;-63
2022/07/14 10:54:14;;;;;;;7.10;1.73;;;31.10;70.30;;;;;;5051184;28;20091;-63
2022/07/14 10:56:42;;;;;;;5.38;1.90;;;31.60;69.80;;;;;;5051252;28;20032;-63
2022/07/14 10:59:26;;;;;;;5.55;1.95;;;31.10;68.80;;;;;;5051013;28;20029;-63
2022/07/14 11:02:13;;;;;;;6.65;1.88;;;30.60;70.80;;;;;;5051263;28;20115;-63
2022/07/14 11:05:03;;;;;;;8.02;1.85;;;31.30;70.00;;;;;;5050992;28;20040;-63
2022/07/14 11:08:21;;;;;;;8.13;1.90;;;31.20;69.40;;;;;;5050031;28;20025;-63
2022/07/14 11:10:46;;;;;;;8.90;2.20;;;31.30;68.80;;;;;;5046507;28;20056;-63
2022/07/14 11:13:16;;;;;;;10.73;2.60;;;31.50;67.60;;;;;;5050720;28;20033;-63
2022/07/14 11:15:43;;;;;;;8.07;1.88;;;31.70;66.10;;;;;;5050899;28;20106;-63
2022/07/14 11:18:18;;;;;;;6.75;1.80;;;31.70;65.70;;;;;;5052711;28;20036;-63
2022/07/14 11:21:16;;;;;;;7.20;1.63;;;31.80;65.20;;;;;;5054779;28;20501;-63
2022/07/14 11:23:48;;;;;;;6.88;1.50;;;32.40;63.20;;;;;;5055218;28;20393;-62
2022/07/14 11:26:32;;;;;;;7.05;1.90;;;31.30;63.30;;;;;;5054768;28;20033;-62
2022/07/14 11:28:59;;;;;;;6.72;2.17;;;30.60;67.40;;;;;;5055127;28;20414;-62
2022/07/14 11:31:25;;;;;;;8.75;2.42;;;30.70;66.90;;;;;;5054521;28;20075;-64
2022/07/14 11:37:01;;;;;;;11.68;2.70;;;31.80;66.30;;;;;;5054685;28;20500;-63
2022/07/14 11:39:37;;;;;;;8.00;2.60;;;32.10;65.50;;;;;;5054564;28;20132;-63
2022/07/14 11:42:11;;;;;;;7.28;2.33;;;32.90;63.80;;;;;;5054546;28;20478;-64
2022/07/14 11:44:40;;;;;;;10.70;2.50;;;32.30;63.80;;;;;;5054559;28;20028;-63
2022/07/14 11:47:08;;;;;;;9.25;1.98;;;32.10;62.80;;;;;;5054347;28;20526;-63
2022/07/14 11:49:36;;;;;;;6.43;2.15;;;32.90;62.20;;;;;;5054557;28;20044;-63
2022/07/14 11:52:04;;;;;;;6.68;2.05;;;34.00;60.80;;;;;;5053917;28;20025;-64
2022/07/14 11:54:32;;;;;;;4.97;1.92;;;35.00;59.40;;;;;;5054612;28;20103;-65
2022/07/14 11:57:03;;;;;;;8.63;2.40;;;34.20;58.00;;;;;;5054284;28;20115;-64
2022/07/14 11:59:30;;;;;;;7.70;1.95;;;33.30;59.80;;;;;;5054677;28;20033;-63
2022/07/14 12:02:28;;;;;;;8.27;2.35;;;32.90;60.20;;;;;;5053643;28;20025;-63
2022/07/14 12:04:55;;;;;;;8.32;2.50;;;32.20;61.40;;;;;;5052709;28;20063;-63
2022/07/14 12:07:27;;;;;;;9.52;2.45;;;32.20;61.20;;;;;;5054083;28;20079;-63
2022/07/14 12:09:53;;;;;;;;;;;31.60;62.20;;;;;;5054628;28;20025;-63
2022/07/14 12:12:20;;;;;;;8.50;2.40;;;31.90;61.40;;;;;;5054071;28;19974;-64
2022/07/14 12:14:51;;;;;;;8.88;1.92;;;32.40;60.70;;;;;;5053947;28;20692;-63
2022/07/14 12:17:21;;;;;;;7.88;1.98;;;32.80;59.90;;;;;;5054238;28;20487;-64
2022/07/14 12:19:48;;;;;;;6.03;1.95;;;32.70;58.80;;;;;;5053893;28;20452;-64
2022/07/14 12:22:15;;;;;;;7.65;1.85;;;31.80;60.20;;;;;;5053637;28;20032;-64
2022/07/14 12:24:41;;;;;;;19.60;2.55;;;31.90;60.00;;;;;;5053585;28;20029;-62
2022/07/14 12:27:11;;;;;;;8.20;1.92;;;30.60;62.70;;;;;;5053639;28;20029;-62
2022/07/14 12:29:48;;;;;;;6.00;1.73;;;30.20;63.30;;;;;;5053089;28;20029;-62
2022/07/14 12:32:15;;;;;;;7.95;2.00;;;30.50;63.70;;;;;;5053956;28;20521;-62
2022/07/14 12:34:42;;;;;;;4.07;1.70;;;30.40;63.70;;;;;;5052273;28;20036;-62
2022/07/14 12:37:09;;;;;;;5.78;1.83;;;29.40;66.20;;;;;;5053348;28;20029;-63
2022/07/14 12:39:35;;;;;;;12.57;2.30;;;29.00;66.30;;;;;;5053295;28;20041;-62
2022/07/14 12:42:03;;;;;;;7.80;1.80;;;29.20;67.90;;;;;;5053740;28;20072;-62
2022/07/14 12:44:30;;;;;;;8.10;2.22;;;29.70;68.10;;;;;;5053010;28;20074;-62
2022/07/14 12:47:09;;;;;;;6.53;1.77;;;30.70;66.30;;;;;;5051845;28;20059;-62
2022/07/14 12:49:46;;;;;;;6.68;1.63;;;30.90;63.20;;;;;;5053661;28;20493;-65
2022/07/14 12:52:13;;;;;;;5.63;1.77;;;30.90;63.70;;;;;;5053042;28;20056;-62
2022/07/14 12:54:40;;;;;;;5.35;2.00;;;30.00;63.80;;;;;;5053436;28;20512;-62
2022/07/14 12:57:07;;;;;;;7.32;1.98;;;29.90;64.40;;;;;;5053255;28;20025;-62